createdAt,value
2023-03-25T00:00:17.493Z,10.10
2023-03-25T00:01:17.356Z,10.06
2023-03-25T00:02:17.380Z,10.01
2023-03-25T00:03:17.343Z,9.99
2023-03-25T00:04:17.328Z,9.94
2023-03-25T00:05:17.290Z,9.94
2023-03-25T00:06:17.286Z,9.93
2023-03-25T00:07:17.264Z,9.89
2023-03-25T00:08:17.249Z,9.86
2023-03-25T00:09:17.233Z,9.85
2023-03-25T00:10:17.239Z,9.83
2023-03-25T00:11:17.230Z,9.82
2023-03-25T00:12:19.442Z,9.79
2023-03-25T00:13:17.195Z,9.76
2023-03-25T00:14:17.180Z,9.70
2023-03-25T00:15:17.182Z,9.68
2023-03-25T00:16:17.210Z,9.66
2023-03-25T00:17:17.164Z,9.64
2023-03-25T00:18:17.111Z,9.64
2023-03-25T00:19:17.133Z,9.61
2023-03-25T00:20:17.117Z,9.60
2023-03-25T00:21:17.090Z,9.58
2023-03-25T00:22:17.083Z,9.57
2023-03-25T00:23:17.052Z,9.56
2023-03-25T00:24:17.039Z,9.53
2023-03-25T00:25:17.121Z,9.50
2023-03-25T00:26:17.031Z,9.50
2023-03-25T00:27:17.010Z,9.49
2023-03-25T00:28:16.995Z,9.46
2023-03-25T00:29:16.976Z,9.46
2023-03-25T00:30:16.984Z,9.46
2023-03-25T00:31:17.095Z,9.46
2023-03-25T00:32:16.945Z,9.46
2023-03-25T00:33:16.927Z,9.45
2023-03-25T00:34:16.913Z,9.45
2023-03-25T00:35:16.952Z,9.48
2023-03-25T00:36:16.898Z,9.49
2023-03-25T00:37:16.872Z,9.49
2023-03-25T00:38:16.861Z,9.52
2023-03-25T00:39:16.853Z,9.53
2023-03-25T00:40:16.844Z,9.53
2023-03-25T00:41:16.813Z,9.53
2023-03-25T00:42:16.828Z,9.53
2023-03-25T00:43:16.796Z,9.53
2023-03-25T00:44:16.794Z,9.56
2023-03-25T00:45:16.797Z,9.56
2023-03-25T00:46:16.813Z,9.56
2023-03-25T00:47:16.747Z,9.57
2023-03-25T00:48:16.726Z,9.57
2023-03-25T00:49:16.718Z,9.56
2023-03-25T00:50:16.727Z,9.56
2023-03-25T00:51:16.691Z,9.56
2023-03-25T00:52:16.679Z,9.56
2023-03-25T00:53:16.669Z,9.56
2023-03-25T00:54:16.666Z,9.53
2023-03-25T00:55:16.638Z,9.52
2023-03-25T00:56:16.622Z,9.56
2023-03-25T00:57:16.661Z,9.58
2023-03-25T00:58:16.596Z,9.58
2023-03-25T00:59:16.599Z,9.60
2023-03-25T01:00:16.600Z,9.61
2023-03-25T01:01:16.615Z,9.63
2023-03-25T01:02:16.626Z,9.63
2023-03-25T01:03:16.619Z,9.63
2023-03-25T01:04:16.507Z,9.61
2023-03-25T01:05:16.528Z,9.63
2023-03-25T01:06:16.480Z,9.63
2023-03-25T01:07:16.706Z,9.61
2023-03-25T01:08:16.469Z,9.56
2023-03-25T01:09:16.450Z,9.52
2023-03-25T01:10:16.464Z,9.46
2023-03-25T01:11:16.415Z,9.45
2023-03-25T01:12:16.400Z,9.42
2023-03-25T01:13:16.384Z,9.42
2023-03-25T01:14:16.402Z,9.42
2023-03-25T01:15:16.390Z,9.39
2023-03-25T01:16:16.388Z,9.34
2023-03-25T01:17:16.332Z,9.30
2023-03-25T01:18:16.330Z,9.28
2023-03-25T01:19:16.328Z,9.24
2023-03-25T01:20:16.321Z,9.25
2023-03-25T01:21:16.287Z,9.25
2023-03-25T01:22:16.262Z,9.20
2023-03-25T01:23:16.265Z,9.18
2023-03-25T01:24:16.261Z,9.16
2023-03-25T01:25:16.242Z,9.16
2023-03-25T01:26:16.224Z,9.15
2023-03-25T01:27:16.221Z,9.13
2023-03-25T01:28:16.189Z,9.13
2023-03-25T01:29:16.187Z,9.09
2023-03-25T01:30:16.182Z,9.09
2023-03-25T01:31:16.183Z,9.09
2023-03-25T01:32:16.135Z,9.06
2023-03-25T01:33:16.121Z,9.09
2023-03-25T01:34:16.125Z,9.02
2023-03-25T01:35:16.120Z,9.01
2023-03-25T01:36:16.107Z,9.02
2023-03-25T01:37:16.089Z,9.01
2023-03-25T01:38:16.048Z,8.99
2023-03-25T01:39:16.039Z,8.97
2023-03-25T01:40:16.042Z,8.97
2023-03-25T01:41:16.033Z,9.01
2023-03-25T01:42:15.990Z,9.01
2023-03-25T01:43:15.986Z,8.99
2023-03-25T01:44:15.981Z,9.01
2023-03-25T01:45:15.990Z,9.02
2023-03-25T01:46:15.981Z,9.02
2023-03-25T01:47:15.943Z,9.01
2023-03-25T01:48:15.925Z,8.97
2023-03-25T01:49:15.936Z,8.94
2023-03-25T01:50:15.899Z,8.93
2023-03-25T01:51:15.887Z,8.94
2023-03-25T01:52:15.892Z,8.94
2023-03-25T01:53:15.852Z,8.94
2023-03-25T01:54:15.831Z,8.91
2023-03-25T01:55:15.845Z,8.91
2023-03-25T01:56:15.836Z,8.88
2023-03-25T01:57:15.796Z,8.90
2023-03-25T01:58:15.787Z,8.90
2023-03-25T01:59:15.790Z,8.91
2023-03-25T02:00:15.781Z,8.91
2023-03-25T02:01:15.867Z,8.91
2023-03-25T02:02:15.746Z,8.90
2023-03-25T02:03:15.737Z,8.91
2023-03-25T02:04:15.705Z,8.93
2023-03-25T02:05:15.702Z,8.91
2023-03-25T02:06:15.702Z,8.94
2023-03-25T02:07:15.677Z,8.94
2023-03-25T02:08:15.665Z,8.94
2023-03-25T02:09:15.654Z,8.94
2023-03-25T02:10:15.636Z,8.93
2023-03-25T02:11:15.663Z,8.93
2023-03-25T02:12:15.619Z,8.91
2023-03-25T02:13:15.657Z,8.90
2023-03-25T02:14:15.591Z,8.90
2023-03-25T02:15:15.571Z,8.91
2023-03-25T02:16:15.580Z,8.91
2023-03-25T02:17:15.532Z,8.91
2023-03-25T02:18:15.520Z,8.94
2023-03-25T02:19:15.525Z,8.94
2023-03-25T02:20:15.484Z,8.91
2023-03-25T02:21:15.510Z,8.93
2023-03-25T02:22:15.485Z,8.97
2023-03-25T02:23:15.469Z,8.97
2023-03-25T02:24:15.448Z,8.97
2023-03-25T02:25:15.451Z,8.96
2023-03-25T02:26:15.440Z,8.96
2023-03-25T02:27:15.415Z,8.96
2023-03-25T02:28:15.394Z,8.94
2023-03-25T02:29:15.396Z,8.96
2023-03-25T02:30:15.372Z,8.96
2023-03-25T02:31:15.386Z,8.97
2023-03-25T02:32:15.350Z,8.97
2023-03-25T02:33:15.346Z,8.97
2023-03-25T02:34:15.314Z,8.99
2023-03-25T02:35:15.303Z,9.02
2023-03-25T02:36:15.286Z,9.02
2023-03-25T02:37:15.269Z,9.05
2023-03-25T02:38:15.270Z,9.05
2023-03-25T02:39:15.261Z,9.04
2023-03-25T02:40:15.222Z,9.05
2023-03-25T02:41:15.234Z,9.05
2023-03-25T02:42:15.191Z,9.06
2023-03-25T02:43:15.202Z,9.09
2023-03-25T02:44:15.167Z,9.06
2023-03-25T02:45:15.155Z,9.05
2023-03-25T02:46:15.213Z,9.05
2023-03-25T02:47:15.132Z,9.04
2023-03-25T02:48:15.141Z,9.04
2023-03-25T02:49:15.111Z,9.05
2023-03-25T02:50:15.118Z,9.06
2023-03-25T02:51:15.096Z,9.05
2023-03-25T02:52:15.079Z,9.06
2023-03-25T02:53:15.047Z,9.06
2023-03-25T02:54:15.040Z,9.06
2023-03-25T02:55:15.122Z,9.06
2023-03-25T02:56:15.020Z,9.04
2023-03-25T02:57:15.007Z,9.02
2023-03-25T02:58:14.996Z,9.05
2023-03-25T02:59:14.966Z,9.06
2023-03-25T03:00:14.956Z,9.06
2023-03-25T03:01:15.183Z,9.04
2023-03-25T03:02:14.947Z,9.04
2023-03-25T03:03:14.985Z,9.02
2023-03-25T03:04:14.920Z,9.02
2023-03-25T03:05:14.904Z,8.99
2023-03-25T03:06:14.898Z,8.97
2023-03-25T03:07:14.866Z,8.96
2023-03-25T03:08:14.884Z,8.94
2023-03-25T03:09:14.853Z,8.96
2023-03-25T03:10:14.833Z,8.96
2023-03-25T03:11:14.826Z,8.93
2023-03-25T03:12:14.824Z,8.93
2023-03-25T03:13:14.785Z,8.94
2023-03-25T03:14:14.787Z,8.91
2023-03-25T03:15:14.775Z,8.90
2023-03-25T03:16:14.792Z,8.88
2023-03-25T03:17:14.831Z,8.87
2023-03-25T03:18:14.851Z,8.86
2023-03-25T03:19:14.705Z,8.86
2023-03-25T03:20:14.691Z,8.86
2023-03-25T03:21:14.715Z,8.84
2023-03-25T03:22:14.678Z,8.84
2023-03-25T03:23:14.643Z,8.86
2023-03-25T03:24:14.637Z,8.86
2023-03-25T03:25:14.638Z,8.84
2023-03-25T03:26:14.637Z,8.84
2023-03-25T03:27:14.621Z,8.86
2023-03-25T03:28:14.618Z,8.87
2023-03-25T03:29:14.567Z,8.88
2023-03-25T03:30:14.582Z,8.90
2023-03-25T03:31:14.579Z,8.90
2023-03-25T03:32:15.628Z,8.91
2023-03-25T03:33:14.562Z,8.91
2023-03-25T03:34:14.514Z,8.91
2023-03-25T03:35:14.507Z,8.93
2023-03-25T03:36:14.495Z,8.93
2023-03-25T03:37:14.522Z,8.93
2023-03-25T03:38:14.453Z,8.93
2023-03-25T03:39:14.442Z,8.94
2023-03-25T03:40:14.444Z,8.94
2023-03-25T03:41:14.435Z,8.94
2023-03-25T03:42:14.438Z,8.93
2023-03-25T03:43:14.400Z,8.93
2023-03-25T03:44:14.394Z,8.93
2023-03-25T03:45:14.377Z,8.93
2023-03-25T03:46:14.424Z,8.94
2023-03-25T03:47:14.338Z,8.93
2023-03-25T03:48:14.323Z,8.90
2023-03-25T03:49:14.325Z,8.90
2023-03-25T04:02:54.536Z,8.84
2023-03-25T04:03:54.444Z,8.83
2023-03-25T04:04:54.422Z,8.84
2023-03-25T04:05:54.418Z,8.83
2023-03-25T04:06:54.376Z,8.84
2023-03-25T04:07:54.374Z,8.86
2023-03-25T04:08:54.356Z,8.83
2023-03-25T04:09:54.349Z,8.84
2023-03-25T04:10:54.361Z,8.84
2023-03-25T04:11:54.327Z,8.84
2023-03-25T04:12:54.322Z,8.84
2023-03-25T04:13:54.299Z,8.83
2023-03-25T04:14:54.298Z,8.83
2023-03-25T04:15:54.562Z,8.83
2023-03-25T04:16:54.265Z,8.81
2023-03-25T04:17:54.275Z,8.79
2023-03-25T04:18:54.249Z,8.78
2023-03-25T04:19:54.229Z,8.76
2023-03-25T04:20:54.228Z,8.71
2023-03-25T04:21:54.199Z,8.65
2023-03-25T04:22:54.188Z,8.57
2023-03-25T04:23:54.178Z,8.50
2023-03-25T04:24:54.168Z,8.45
2023-03-25T04:25:54.209Z,8.45
2023-03-25T04:26:54.136Z,8.45
2023-03-25T04:27:54.134Z,8.36
2023-03-25T04:28:54.112Z,8.29
2023-03-25T04:29:54.124Z,8.22
2023-03-25T04:30:54.104Z,8.18
2023-03-25T04:31:54.088Z,8.17
2023-03-25T04:32:54.090Z,8.17
2023-03-25T04:33:54.032Z,8.14
2023-03-25T04:34:54.044Z,8.12
2023-03-25T04:35:54.300Z,8.14
2023-03-25T04:36:54.888Z,8.12
2023-03-25T04:37:53.983Z,8.12
2023-03-25T04:38:53.972Z,8.12
2023-03-25T04:39:53.982Z,8.08
2023-03-25T04:40:54.014Z,8.00
2023-03-25T04:41:53.953Z,8.02
2023-03-25T04:42:53.935Z,8.03
2023-03-25T04:43:53.930Z,8.02
2023-03-25T04:44:53.910Z,7.99
2023-03-25T04:45:54.335Z,7.99
2023-03-25T04:46:53.884Z,7.99
2023-03-25T04:47:53.929Z,7.99
2023-03-25T04:48:53.929Z,7.99
2023-03-25T04:49:53.854Z,7.97
2023-03-25T04:50:53.847Z,7.97
2023-03-25T04:51:53.866Z,7.97
2023-03-25T04:52:53.847Z,7.94
2023-03-25T04:53:53.804Z,7.92
2023-03-25T04:54:53.809Z,7.93
2023-03-25T04:55:53.787Z,7.94
2023-03-25T04:56:53.820Z,7.97
2023-03-25T04:57:53.749Z,8.02
2023-03-25T04:58:53.727Z,8.03
2023-03-25T04:59:53.708Z,8.03
2023-03-25T05:00:53.739Z,7.97
2023-03-25T05:01:53.687Z,7.93
2023-03-25T05:02:53.722Z,7.92
2023-03-25T05:03:53.669Z,7.90
2023-03-25T05:04:53.648Z,7.93
2023-03-25T05:05:53.765Z,7.93
2023-03-25T05:06:53.646Z,7.93
2023-03-25T05:07:53.618Z,7.94
2023-03-25T05:08:53.602Z,7.96
2023-03-25T05:09:53.568Z,7.96
2023-03-25T05:10:53.577Z,7.96
2023-03-25T05:11:53.651Z,7.94
2023-03-25T05:12:53.548Z,7.94
2023-03-25T05:13:53.568Z,7.96
2023-03-25T05:14:53.567Z,7.93
2023-03-25T05:15:53.908Z,7.92
2023-03-25T05:16:53.500Z,7.93
2023-03-25T05:17:53.591Z,7.93
2023-03-25T05:18:53.530Z,7.94
2023-03-25T05:19:53.444Z,7.99
2023-03-25T05:20:53.464Z,7.97
2023-03-25T05:21:53.477Z,7.94
2023-03-25T05:22:53.444Z,7.94
2023-03-25T05:23:53.395Z,7.94
2023-03-25T05:24:53.400Z,7.96
2023-03-25T05:25:53.672Z,7.96
2023-03-25T05:26:53.417Z,7.97
2023-03-25T05:27:53.340Z,8.02
2023-03-25T05:28:53.347Z,8.02
2023-03-25T05:29:53.308Z,8.02
2023-03-25T05:30:53.313Z,8.00
2023-03-25T05:31:53.421Z,8.02
2023-03-25T05:32:56.493Z,8.00
2023-03-25T05:33:53.273Z,8.02
2023-03-25T05:34:53.240Z,8.03
2023-03-25T05:35:53.426Z,8.03
2023-03-25T05:36:53.232Z,8.00
2023-03-25T05:37:53.237Z,8.00
2023-03-25T05:38:53.225Z,8.03
2023-03-25T05:39:53.177Z,8.04
2023-03-25T05:40:53.182Z,8.03
2023-03-25T05:41:53.175Z,8.03
2023-03-25T05:42:53.153Z,8.03
2023-03-25T05:43:53.121Z,8.02
2023-03-25T05:44:53.137Z,8.04
2023-03-25T05:45:53.404Z,8.04
2023-03-25T05:46:53.112Z,8.04
2023-03-25T05:47:53.103Z,8.04
2023-03-25T05:48:53.053Z,8.07
2023-03-25T05:49:53.067Z,8.08
2023-03-25T05:50:53.037Z,8.07
2023-03-25T05:51:53.037Z,8.07
2023-03-25T05:52:53.039Z,8.07
2023-03-25T05:53:52.991Z,8.03
2023-03-25T05:54:52.996Z,8.00
2023-03-25T05:55:53.173Z,8.00
2023-03-25T05:56:53.022Z,8.00
2023-03-25T05:57:52.959Z,8.02
2023-03-25T05:58:52.947Z,8.03
2023-03-25T05:59:52.946Z,8.04
2023-03-25T06:00:52.940Z,8.04
2023-03-25T06:01:52.923Z,8.08
2023-03-25T06:02:53.010Z,8.08
2023-03-25T06:03:52.893Z,8.03
2023-03-25T06:04:52.867Z,8.02
2023-03-25T06:05:52.858Z,8.03
2023-03-25T06:06:52.853Z,8.03
2023-03-25T06:07:52.846Z,8.04
2023-03-25T06:08:52.837Z,8.03
2023-03-25T06:09:52.809Z,8.03
2023-03-25T06:10:52.796Z,8.03
2023-03-25T06:11:52.779Z,8.04
2023-03-25T06:12:52.781Z,8.07
2023-03-25T06:13:52.756Z,8.07
2023-03-25T06:14:52.743Z,8.10
2023-03-25T06:15:53.115Z,8.08
2023-03-25T06:16:52.710Z,8.08
2023-03-25T06:17:52.837Z,8.07
2023-03-25T06:18:52.700Z,8.07
2023-03-25T06:19:52.684Z,8.07
2023-03-25T06:20:52.667Z,8.07
2023-03-25T06:21:52.638Z,8.10
2023-03-25T06:22:52.674Z,8.10
2023-03-25T06:23:52.608Z,8.11
2023-03-25T06:24:52.615Z,8.15
2023-03-25T06:25:52.794Z,8.14
2023-03-25T06:26:52.578Z,8.15
2023-03-25T06:27:52.589Z,8.14
2023-03-25T06:28:52.686Z,8.12
2023-03-25T06:29:52.574Z,8.12
2023-03-25T06:30:52.579Z,8.12
2023-03-25T06:31:52.523Z,8.17
2023-03-25T06:32:52.709Z,8.17
2023-03-25T06:33:52.490Z,8.20
2023-03-25T06:34:52.489Z,8.17
2023-03-25T06:35:52.743Z,8.20
2023-03-25T06:36:52.438Z,8.21
2023-03-25T06:37:52.495Z,8.20
2023-03-25T06:38:52.444Z,8.22
2023-03-25T06:39:52.409Z,8.25
2023-03-25T06:40:52.413Z,8.26
2023-03-25T06:41:52.389Z,8.26
2023-03-25T06:42:52.401Z,8.25
2023-03-25T06:43:52.398Z,8.26
2023-03-25T06:44:52.353Z,8.25
2023-03-25T06:45:52.627Z,8.26
2023-03-25T06:46:52.359Z,8.28
2023-03-25T06:47:52.319Z,8.30
2023-03-25T06:48:52.311Z,8.33
2023-03-25T06:49:52.277Z,8.36
2023-03-25T06:50:52.280Z,8.40
2023-03-25T06:51:52.248Z,8.48
2023-03-25T06:52:52.240Z,8.51
2023-03-25T06:53:52.332Z,8.53
2023-03-25T06:54:52.235Z,8.51
2023-03-25T06:55:52.434Z,8.51
2023-03-25T06:56:52.239Z,8.53
2023-03-25T06:57:52.174Z,8.50
2023-03-25T06:58:52.168Z,8.50
2023-03-25T06:59:52.145Z,8.54
2023-03-25T07:00:52.153Z,8.57
2023-03-25T07:01:52.138Z,8.60
2023-03-25T07:02:52.146Z,8.60
2023-03-25T07:03:52.109Z,8.62
2023-03-25T07:04:52.141Z,8.65
2023-03-25T07:05:52.227Z,8.68
2023-03-25T07:06:52.075Z,8.68
2023-03-25T07:07:52.059Z,8.72
2023-03-25T07:08:52.044Z,8.78
2023-03-25T07:09:52.030Z,8.83
2023-03-25T07:10:52.025Z,8.87
2023-03-25T07:11:51.995Z,8.91
2023-03-25T07:12:51.988Z,8.90
2023-03-25T07:13:52.014Z,8.94
2023-03-25T07:14:51.966Z,8.96
2023-03-25T07:15:52.158Z,8.97
2023-03-25T07:16:51.925Z,8.93
2023-03-25T07:17:51.969Z,8.93
2023-03-25T07:18:51.897Z,8.96
2023-03-25T07:19:51.896Z,8.96
2023-03-25T07:20:51.875Z,9.01
2023-03-25T07:21:51.865Z,8.97
2023-03-25T07:22:51.858Z,8.97
2023-03-25T07:23:51.864Z,9.01
2023-03-25T07:24:51.834Z,9.04
2023-03-25T07:25:51.951Z,9.06
2023-03-25T07:26:51.783Z,9.10
2023-03-25T07:27:51.794Z,9.13
2023-03-25T07:28:51.776Z,9.15
2023-03-25T07:29:51.770Z,9.20
2023-03-25T07:30:51.744Z,9.25
2023-03-25T07:31:51.774Z,9.27
2023-03-25T07:32:51.800Z,9.28
2023-03-25T07:33:51.723Z,9.28
2023-03-25T07:34:51.702Z,9.30
2023-03-25T07:35:51.846Z,9.32
2023-03-25T07:36:51.710Z,9.32
2023-03-25T07:37:51.643Z,9.34
2023-03-25T07:38:51.631Z,9.32
2023-03-25T07:39:51.618Z,9.34
2023-03-25T07:40:51.601Z,9.31
2023-03-25T07:41:51.592Z,9.28
2023-03-25T07:42:51.578Z,9.28
2023-03-25T07:43:51.579Z,9.32
2023-03-25T07:44:51.574Z,9.39
2023-03-25T07:45:51.597Z,9.39
2023-03-25T07:46:51.533Z,9.34
2023-03-25T07:47:51.567Z,9.39
2023-03-25T07:48:51.523Z,9.39
2023-03-25T07:49:51.507Z,9.31
2023-03-25T07:50:51.478Z,9.27
2023-03-25T07:51:51.469Z,9.24
2023-03-25T07:52:51.453Z,9.25
2023-03-25T07:53:51.454Z,9.28
2023-03-25T07:54:51.444Z,9.25
2023-03-25T07:55:51.730Z,9.23
2023-03-25T07:56:51.431Z,9.24
2023-03-25T07:57:51.409Z,9.30
2023-03-25T07:58:51.378Z,9.34
2023-03-25T07:59:51.372Z,9.39
2023-03-25T08:00:51.346Z,9.45
2023-03-25T08:01:51.399Z,9.46
2023-03-25T08:02:51.381Z,9.40
2023-03-25T08:03:51.364Z,9.43
2023-03-25T08:04:51.290Z,9.50
2023-03-25T08:05:51.457Z,9.60
2023-03-25T08:06:51.272Z,9.63
2023-03-25T08:07:51.260Z,9.70
2023-03-25T08:08:51.235Z,9.78
2023-03-25T08:09:51.255Z,9.75
2023-03-25T08:10:51.221Z,9.71
2023-03-25T08:11:51.201Z,9.57
2023-03-25T08:12:51.201Z,9.53
2023-03-25T08:13:51.191Z,9.57
2023-03-25T08:14:51.159Z,9.64
2023-03-25T08:15:51.392Z,9.70
2023-03-25T08:16:51.174Z,9.75
2023-03-25T08:17:51.182Z,9.79
2023-03-25T08:18:51.086Z,9.83
2023-03-25T08:19:51.110Z,9.89
2023-03-25T08:20:51.081Z,9.85
2023-03-25T08:21:51.047Z,9.82
2023-03-25T08:22:51.053Z,9.88
2023-03-25T08:23:51.046Z,9.97
2023-03-25T08:24:51.045Z,10.00
2023-03-25T08:25:51.722Z,10.06
2023-03-25T08:26:50.994Z,9.99
2023-03-25T08:27:51.003Z,9.89
2023-03-25T08:28:50.959Z,9.85
2023-03-25T08:29:50.999Z,9.81
2023-03-25T08:30:50.942Z,9.71
2023-03-25T08:31:50.954Z,9.75
2023-03-25T08:32:51.058Z,9.73
2023-03-25T08:33:50.916Z,9.78
2023-03-25T08:34:50.894Z,9.82
2023-03-25T08:35:51.213Z,9.79
2023-03-25T08:36:50.870Z,9.78
2023-03-25T08:37:50.854Z,9.78
2023-03-25T08:38:50.879Z,9.78
2023-03-25T08:39:50.853Z,9.81
2023-03-25T08:40:50.824Z,9.83
2023-03-25T08:41:50.780Z,9.88
2023-03-25T08:42:50.777Z,10.00
2023-03-25T08:43:50.771Z,10.04
2023-03-25T08:44:50.744Z,10.15
2023-03-25T08:45:50.918Z,10.32
2023-03-25T08:46:50.723Z,10.40
2023-03-25T08:47:50.774Z,10.46
2023-03-25T08:48:50.689Z,10.46
2023-03-25T08:49:50.693Z,10.51
2023-03-25T08:50:50.743Z,10.44
2023-03-25T08:51:50.664Z,10.43
2023-03-25T08:52:50.653Z,10.42
2023-03-25T08:53:50.649Z,10.43
2023-03-25T08:54:50.618Z,10.43
2023-03-25T08:55:50.779Z,10.43
2023-03-25T08:56:50.595Z,10.47
2023-03-25T08:57:50.591Z,10.56
2023-03-25T08:58:50.594Z,10.70
2023-03-25T08:59:50.563Z,10.78
2023-03-25T09:00:50.553Z,10.74
2023-03-25T09:01:50.563Z,10.80
2023-03-25T09:02:50.540Z,10.78
2023-03-25T09:03:50.532Z,10.68
2023-03-25T09:04:50.518Z,10.63
2023-03-25T09:05:50.918Z,10.66
2023-03-25T09:07:11.291Z,10.65
2023-03-25T09:07:51.466Z,10.62
2023-03-25T09:08:50.598Z,10.65
2023-03-25T09:09:50.422Z,10.70
2023-03-25T09:10:50.430Z,10.80
2023-03-25T09:11:50.402Z,10.89
2023-03-25T09:12:50.375Z,10.95
2023-03-25T09:13:50.363Z,11.06
2023-03-25T09:14:50.375Z,11.10
2023-03-25T09:15:50.688Z,11.21
2023-03-25T09:16:50.336Z,11.19
2023-03-25T09:17:50.341Z,11.17
2023-03-25T09:18:50.308Z,11.28
2023-03-25T09:19:51.655Z,11.41
2023-03-25T09:20:50.282Z,11.46
2023-03-25T09:21:50.262Z,11.61
2023-03-25T09:22:50.248Z,11.61
2023-03-25T09:23:50.241Z,11.56
2023-03-25T09:24:50.243Z,11.52
2023-03-25T09:25:50.387Z,11.44
2023-03-25T09:26:50.197Z,11.36
2023-03-25T09:27:50.187Z,11.28
2023-03-25T09:28:50.213Z,11.52
2023-03-25T09:29:50.183Z,11.68
2023-03-25T09:30:50.189Z,11.74
2023-03-25T09:31:50.175Z,11.89
2023-03-25T09:32:50.147Z,12.08
2023-03-25T09:33:50.112Z,12.21
2023-03-25T09:34:50.097Z,12.31
2023-03-25T09:35:50.406Z,12.52
2023-03-25T09:36:50.069Z,12.74
2023-03-25T09:37:51.935Z,12.77
2023-03-25T09:38:50.051Z,12.88
2023-03-25T09:39:50.020Z,12.81
2023-03-25T09:40:50.024Z,12.67
2023-03-25T09:41:50.026Z,12.63
2023-03-25T09:42:50.008Z,12.49
2023-03-25T09:43:49.970Z,12.44
2023-03-25T09:44:49.976Z,12.57
2023-03-25T09:45:50.211Z,12.56
2023-03-25T09:46:50.015Z,12.23
2023-03-25T10:03:14.743Z,11.85
2023-03-25T10:04:14.666Z,11.72
2023-03-25T10:05:14.682Z,11.72
2023-03-25T10:06:14.645Z,11.78
2023-03-25T10:07:14.621Z,12.06
2023-03-25T10:08:14.617Z,12.15
2023-03-25T10:09:14.598Z,12.41
2023-03-25T10:10:14.609Z,12.44
2023-03-25T10:11:14.568Z,12.42
2023-03-25T10:12:14.593Z,12.42
2023-03-25T10:13:14.547Z,12.46
2023-03-25T10:14:14.551Z,12.42
2023-03-25T10:15:14.546Z,12.51
2023-03-25T10:16:22.083Z,12.66
2023-03-25T10:17:14.500Z,12.75
2023-03-25T10:18:14.525Z,12.97
2023-03-25T10:19:14.489Z,13.11
2023-03-25T10:20:14.479Z,13.02
2023-03-25T10:21:14.460Z,12.99
2023-03-25T10:22:14.461Z,12.74
2023-03-25T10:23:14.427Z,12.57
2023-03-25T10:24:14.433Z,12.30
2023-03-25T10:25:14.424Z,12.16
2023-03-25T10:26:14.468Z,12.04
2023-03-25T10:27:14.374Z,11.93
2023-03-25T10:28:14.394Z,11.89
2023-03-25T10:29:14.364Z,11.75
2023-03-25T10:30:14.404Z,11.64
2023-03-25T10:31:14.355Z,11.56
2023-03-25T10:32:14.333Z,11.52
2023-03-25T10:33:14.345Z,11.53
2023-03-25T10:34:14.269Z,11.53
2023-03-25T10:35:14.331Z,11.50
2023-03-25T10:36:14.260Z,11.49
2023-03-25T10:37:14.292Z,11.47
2023-03-25T10:38:14.736Z,11.49
2023-03-25T10:39:14.215Z,11.50
2023-03-25T10:40:14.231Z,11.52
2023-03-25T10:41:14.199Z,11.50
2023-03-25T10:42:14.225Z,11.46
2023-03-25T10:43:14.156Z,11.43
2023-03-25T10:44:14.156Z,11.34
2023-03-25T10:45:14.208Z,11.36
2023-03-25T10:46:14.188Z,11.41
2023-03-25T10:47:14.108Z,11.43
2023-03-25T10:48:14.121Z,11.47
2023-03-25T10:49:14.083Z,11.52
2023-03-25T10:50:14.100Z,11.46
2023-03-25T10:51:14.077Z,11.25
2023-03-25T10:52:14.041Z,11.14
2023-03-25T10:53:14.106Z,11.13
2023-03-25T10:54:14.017Z,11.13
2023-03-25T10:55:14.066Z,11.03
2023-03-25T10:56:14.022Z,11.02
2023-03-25T10:57:14.031Z,11.02
2023-03-25T10:58:14.038Z,11.03
2023-03-25T10:59:13.957Z,10.98
2023-03-25T11:00:13.990Z,10.99
2023-03-25T11:01:13.989Z,11.06
2023-03-25T11:02:14.015Z,11.13
2023-03-25T11:03:13.992Z,11.14
2023-03-25T11:04:13.890Z,11.17
2023-03-25T11:05:13.867Z,11.17
2023-03-25T11:06:13.871Z,11.19
2023-03-25T11:07:13.862Z,11.20
2023-03-25T11:08:23.685Z,11.20
2023-03-25T11:09:14.825Z,11.16
2023-03-25T11:10:13.894Z,11.11
2023-03-25T11:11:13.823Z,11.03
2023-03-25T11:12:13.792Z,10.98
2023-03-25T11:13:13.798Z,10.91
2023-03-25T11:14:13.827Z,10.84
2023-03-25T11:15:13.762Z,10.70
2023-03-25T11:16:13.783Z,10.59
2023-03-25T11:17:13.736Z,10.53
2023-03-25T11:18:13.710Z,10.43
2023-03-25T11:19:13.749Z,10.28
2023-03-25T11:20:13.697Z,10.01
2023-03-25T11:21:13.680Z,9.73
2023-03-25T11:22:13.656Z,9.61
2023-03-25T11:23:13.670Z,9.38
2023-03-25T11:24:13.656Z,9.18
2023-03-25T11:25:13.612Z,8.99
2023-03-25T11:26:13.629Z,8.63
2023-03-25T11:27:13.636Z,8.26
2023-03-25T11:28:13.578Z,7.90
2023-03-25T11:29:13.553Z,7.66
2023-03-25T11:30:13.624Z,7.38
2023-03-25T11:31:13.601Z,7.24
2023-03-25T11:32:13.552Z,7.23
2023-03-25T11:33:13.571Z,7.20
2023-03-25T11:34:13.556Z,7.22
2023-03-25T11:35:13.471Z,7.26
2023-03-25T11:36:13.495Z,7.29
2023-03-25T11:37:13.449Z,7.47
2023-03-25T11:38:13.451Z,7.92
2023-03-25T11:39:13.446Z,8.90
2023-03-25T11:40:13.418Z,9.66
2023-03-25T11:41:13.425Z,10.32
2023-03-25T11:42:13.396Z,10.89
2023-03-25T11:43:13.571Z,11.54
2023-03-25T11:44:13.378Z,12.06
2023-03-25T11:45:13.342Z,11.89
2023-03-25T11:46:13.475Z,12.52
2023-03-25T11:47:13.325Z,13.87
2023-03-25T11:48:13.389Z,14.52
2023-03-25T11:49:13.308Z,15.05
2023-03-25T11:50:13.432Z,15.82
2023-03-25T11:51:13.281Z,16.45
2023-03-25T11:52:13.363Z,17.20
2023-03-25T11:53:13.295Z,17.48
2023-03-25T11:54:13.253Z,17.78
2023-03-25T11:55:13.247Z,17.29
2023-03-25T11:56:13.215Z,17.43
2023-03-25T11:57:13.242Z,17.54
2023-03-25T11:58:13.290Z,17.57
2023-03-25T11:59:13.191Z,17.87
2023-03-25T12:00:13.194Z,18.13
2023-03-25T12:01:13.149Z,18.19
2023-03-25T12:02:13.118Z,18.68
2023-03-25T12:03:13.222Z,19.39
2023-03-25T12:04:13.124Z,19.98
2023-03-25T12:05:13.112Z,19.63
2023-03-25T12:06:13.096Z,19.21
2023-03-25T12:07:13.057Z,18.54
2023-03-25T12:08:13.104Z,17.82
2023-03-25T12:09:13.078Z,16.18
2023-03-25T12:10:13.061Z,15.41
2023-03-25T12:11:13.048Z,15.12
2023-03-25T12:12:13.086Z,15.46
2023-03-25T12:13:12.990Z,15.36
2023-03-25T12:14:12.969Z,15.27
2023-03-25T12:15:13.018Z,15.21
2023-03-25T12:16:13.018Z,14.67
2023-03-25T12:17:12.922Z,14.27
2023-03-25T12:18:12.911Z,13.56
2023-03-25T12:19:12.929Z,13.27
2023-03-25T12:20:12.919Z,13.92
2023-03-25T12:21:12.898Z,14.09
2023-03-25T12:22:12.854Z,13.80
2023-03-25T12:23:12.862Z,14.19
2023-03-25T12:24:12.835Z,15.09
2023-03-25T12:25:12.872Z,14.50
2023-03-25T12:26:12.830Z,15.93
2023-03-25T12:27:12.793Z,16.41
2023-03-25T12:28:12.780Z,16.06
2023-03-25T12:29:12.787Z,16.31
2023-03-25T12:30:12.808Z,17.28
2023-03-25T12:31:12.825Z,16.89
2023-03-25T12:32:12.775Z,16.89
2023-03-25T12:33:12.742Z,17.18
2023-03-25T12:34:12.733Z,17.33
2023-03-25T12:35:12.690Z,18.37
2023-03-25T12:36:12.687Z,18.87
2023-03-25T12:37:12.671Z,19.63
2023-03-25T12:38:12.657Z,20.08
2023-03-25T12:39:12.639Z,20.76
2023-03-25T12:40:12.662Z,20.61
2023-03-25T12:41:12.626Z,20.71
2023-03-25T12:42:12.631Z,20.89
2023-03-25T12:43:12.593Z,20.83
2023-03-25T12:44:12.572Z,19.25
2023-03-25T12:45:12.565Z,19.72
2023-03-25T12:46:12.686Z,20.56
2023-03-25T12:47:12.548Z,21.29
2023-03-25T12:48:12.563Z,19.91
2023-03-25T12:49:12.517Z,19.55
2023-03-25T12:50:12.516Z,18.47
2023-03-25T12:51:12.516Z,18.27
2023-03-25T12:52:12.473Z,16.83
2023-03-25T12:53:12.481Z,16.52
2023-03-25T12:54:12.434Z,15.84
2023-03-25T12:55:12.432Z,14.94
2023-03-25T12:56:12.425Z,14.47
2023-03-25T12:57:12.492Z,14.01
2023-03-25T12:58:12.403Z,13.63
2023-03-25T12:59:12.386Z,13.41
2023-03-25T13:00:12.379Z,13.04
2023-03-25T13:01:12.465Z,12.93
2023-03-25T13:02:12.434Z,12.66
2023-03-25T13:03:12.387Z,12.44
2023-03-25T13:04:12.349Z,12.26
2023-03-25T13:05:12.339Z,12.15
2023-03-25T13:06:12.340Z,12.04
2023-03-25T13:07:12.258Z,12.09
2023-03-25T13:08:12.308Z,12.04
2023-03-25T13:09:12.262Z,11.90
2023-03-25T13:10:12.238Z,11.77
2023-03-25T13:11:12.292Z,11.72
2023-03-25T13:12:12.199Z,11.72
2023-03-25T13:13:12.235Z,11.72
2023-03-25T13:14:12.188Z,11.74
2023-03-25T13:15:12.192Z,11.74
2023-03-25T13:16:12.205Z,11.72
2023-03-25T13:17:12.139Z,11.71
2023-03-25T13:18:12.240Z,11.65
2023-03-25T13:19:12.137Z,11.62
2023-03-25T13:20:12.110Z,11.50
2023-03-25T13:21:14.191Z,11.38
2023-03-25T13:22:12.165Z,11.31
2023-03-25T13:23:12.130Z,11.24
2023-03-25T13:24:12.050Z,11.17
2023-03-25T13:25:12.061Z,11.16
2023-03-25T13:26:12.052Z,11.19
2023-03-25T13:27:12.022Z,11.28
2023-03-25T13:28:12.018Z,11.29
2023-03-25T13:29:12.019Z,11.16
2023-03-25T13:30:12.014Z,11.01
2023-03-25T13:31:12.025Z,10.96
2023-03-25T13:32:12.090Z,10.83
2023-03-25T13:33:11.979Z,10.86
2023-03-25T13:34:11.950Z,10.88
2023-03-25T13:35:11.936Z,10.78
2023-03-25T13:36:11.911Z,10.77
2023-03-25T13:37:11.943Z,10.77